Time;durP1;ratioP1;P1;durP2;ratioP2;P2;SDS_P1;SDS_P2;PMS_P1;PMS_P2;Temp;Humidity;BMP_temperature;BMP_pressure;BME280_temperature;BME280_humidity;BME280_pressure;Samples;Min_cycle;Max_cycle;Signal;HPM_P1;HPM_P2
2023/05/30 00:01:39;;;;;;;25.55;3.80;;;;;;;9.64;100.00;101821.78;5027225;28;20121;-75
2023/05/30 00:04:05;;;;;;;13.65;3.63;;;;;;;9.59;100.00;101824.00;5041953;28;20031;-75
2023/05/30 00:06:30;;;;;;;16.40;4.50;;;;;;;9.55;100.00;101819.06;5044107;28;20148;-75
2023/05/30 00:08:56;;;;;;;8.77;3.70;;;;;;;9.53;100.00;101829.88;5009975;28;20037;-75
2023/05/30 00:11:23;;;;;;;21.08;4.57;;;;;;;9.40;100.00;101827.38;5026374;28;20037;-75
2023/05/30 00:13:49;;;;;;;12.98;3.30;;;;;;;9.50;100.00;101832.78;5026091;28;20122;-75
2023/05/30 00:16:14;;;;;;;32.33;5.97;;;;;;;9.35;100.00;101823.41;5043855;28;20040;-75
2023/05/30 00:18:40;;;;;;;14.57;3.23;;;;;;;9.39;100.00;101827.50;5026850;28;20025;-75
2023/05/30 00:21:07;;;;;;;13.87;3.60;;;;;;;9.44;100.00;101830.66;5041914;28;20029;-75
2023/05/30 00:23:35;;;;;;;16.67;4.80;;;;;;;9.35;100.00;101823.41;5026045;28;20411;-75
2023/05/30 00:26:01;;;;;;;19.10;3.60;;;;;;;9.21;100.00;101809.41;5025516;28;20048;-75
2023/05/30 00:28:27;;;;;;;17.58;3.63;;;;;;;9.33;100.00;101838.69;5026802;28;20033;-75
2023/05/30 00:30:53;;;;;;;27.08;4.10;;;;;;;9.28;100.00;101815.94;5026259;28;20135;-75
2023/05/30 00:33:18;;;;;;;15.07;3.63;;;;;;;9.21;100.00;101821.91;5026401;28;20392;-76
2023/05/30 00:35:46;;;;;;;18.23;3.10;;;;;;;9.25;100.00;101813.53;5008679;28;20073;-76
2023/05/30 00:38:12;;;;;;;18.63;4.83;;;;;;;9.34;100.00;101822.59;5026525;28;20029;-76
2023/05/30 00:40:37;;;;;;;13.87;3.17;;;;;;;9.16;100.00;101782.31;5024008;28;20034;-75
2023/05/30 00:43:03;;;;;;;14.83;3.27;;;;;;;9.24;100.00;101806.50;5009049;28;20389;-75
2023/05/30 00:45:28;;;;;;;13.45;3.78;;;;;;;9.13;100.00;101798.56;5026145;28;20037;-75
2023/05/30 00:47:53;;;;;;;13.53;3.23;;;;;;;9.11;100.00;101823.63;5026521;28;20071;-75
2023/05/30 00:50:20;;;;;;;17.27;3.77;;;;;;;8.93;100.00;101808.19;5023167;28;20026;-76
2023/05/30 00:52:47;;;;;;;21.05;3.88;;;;;;;8.96;100.00;101823.06;5041449;28;20017;-75
2023/05/30 00:55:13;;;;;;;16.15;3.95;;;;;;;8.98;100.00;101834.44;5026196;28;20033;-75
2023/05/30 00:57:39;;;;;;;;;;;;;;;8.84;100.00;101857.72;5026994;28;20495;-75
2023/05/30 01:00:10;;;;;;;12.18;2.83;;;;;;;8.87;100.00;101872.59;5041896;28;19959;-75
2023/05/30 01:02:36;;;;;;;10.77;3.38;;;;;;;8.97;100.00;101846.94;5043476;28;20134;-75
2023/05/30 01:05:02;;;;;;;;;;;;;;;8.96;100.00;101833.72;5043314;28;20502;-75
2023/05/30 01:07:29;;;;;;;19.58;3.60;;;;;;;8.95;100.00;101822.22;5022846;28;19917;-75
2023/05/30 01:09:55;;;;;;;17.50;3.83;;;;;;;8.87;100.00;101824.66;5025681;28;20070;-75
2023/05/30 01:12:37;;;;;;;14.23;3.97;;;;;;;8.87;100.00;101844.16;5023460;28;20032;-76
2023/05/30 01:15:17;;;;;;;13.02;4.00;;;;;;;8.91;100.00;101843.91;5025402;28;20166;-75
2023/05/30 01:17:45;;;;;;;14.52;3.63;;;;;;;8.91;100.00;101839.44;5026659;28;20041;-76
2023/05/30 01:20:13;;;;;;;9.90;3.40;;;;;;;8.71;100.00;101830.41;5025370;28;20598;-75
2023/05/30 01:23:00;;;;;;;15.93;4.90;;;;;;;8.67;100.00;101855.56;5025871;28;20090;-75
2023/05/30 01:25:40;;;;;;;15.38;3.47;;;;;;;8.63;100.00;101859.44;5026475;28;20026;-75
2023/05/30 01:28:12;;;;;;;15.57;3.55;;;;;;;8.71;100.00;101866.81;5042938;28;20036;-75
2023/05/30 01:30:41;;;;;;;12.82;4.00;;;;;;;8.64;100.00;101862.00;5026750;28;20032;-75
2023/05/30 01:33:10;;;;;;;16.83;4.25;;;;;;;8.61;100.00;101869.38;5044571;28;20124;-75
2023/05/30 01:35:35;;;;;;;34.53;4.65;;;;;;;8.65;100.00;101874.31;5013069;28;20470;-75
2023/05/30 01:38:01;;;;;;;15.02;3.35;;;;;;;8.59;100.00;101868.63;5035403;28;20056;-75
2023/05/30 01:40:28;;;;;;;14.23;4.00;;;;;;;8.66;100.00;101878.69;5029597;28;20045;-75
2023/05/30 01:43:35;;;;;;;13.80;3.95;;;;;;;8.69;100.00;101868.78;5028699;28;20479;-75
2023/05/30 01:46:30;;;;;;;12.55;4.03;;;;;;;8.57;100.00;101860.78;4981670;28;20046;-75
2023/05/30 01:48:56;;;;;;;18.80;4.82;;;;;;;8.55;100.00;101888.50;4980955;28;20038;-75
2023/05/30 01:51:41;;;;;;;17.67;3.53;;;;;;;8.52;100.00;101888.72;4958337;28;20088;-75
2023/05/30 01:54:08;;;;;;;18.20;4.65;;;;;;;8.60;100.00;101891.66;4968307;28;20038;-75
2023/05/30 01:56:35;;;;;;;15.85;3.88;;;;;;;8.41;100.00;101887.78;4991172;28;20038;-75
2023/05/30 01:59:03;;;;;;;18.45;3.55;;;;;;;8.48;100.00;101908.59;4992923;28;20117;-75
2023/05/30 02:01:29;;;;;;;14.00;4.03;;;;;;;8.43;100.00;101901.81;4970588;28;20326;-75
2023/05/30 02:03:55;;;;;;;20.52;4.63;;;;;;;8.41;100.00;101898.41;4973940;28;20050;-75
2023/05/30 02:06:22;;;;;;;15.75;4.78;;;;;;;8.33;100.00;101916.75;4990868;28;20755;-75
2023/05/30 02:08:47;;;;;;;12.13;4.32;;;;;;;8.30;100.00;101926.78;4958809;28;20498;-75
2023/05/30 02:11:14;;;;;;;16.85;3.97;;;;;;;8.30;100.00;101935.63;4978910;28;20034;-75
2023/05/30 02:13:40;;;;;;;21.42;3.78;;;;;;;8.34;100.00;101938.91;4992734;28;20544;-75
2023/05/30 02:16:06;;;;;;;10.17;4.17;;;;;;;8.25;100.00;101938.63;4996352;28;20910;-76
2023/05/30 02:18:32;;;;;;;15.60;4.13;;;;;;;8.23;100.00;101942.38;5012593;28;20276;-75
2023/05/30 02:20:58;;;;;;;21.90;6.65;;;;;;;8.22;100.00;101930.06;5043546;28;20460;-75
2023/05/30 02:23:23;;;;;;;22.53;3.80;;;;;;;8.30;100.00;101935.63;5045599;28;20068;-75
2023/05/30 02:25:49;;;;;;;16.87;4.53;;;;;;;8.21;100.00;101929.19;5045556;28;20067;-76
2023/05/30 02:28:14;;;;;;;23.67;5.40;;;;;;;8.12;100.00;101934.38;5016887;28;20078;-75
2023/05/30 02:30:39;;;;;;;16.40;5.27;;;;;;;8.13;100.00;101939.59;5028928;28;20025;-75
2023/05/30 02:33:05;;;;;;;16.60;5.30;;;;;;;8.16;100.00;101941.16;5043899;28;20056;-75
2023/05/30 02:35:30;;;;;;;15.70;4.30;;;;;;;8.13;100.00;101947.56;5028329;28;20798;-75
2023/05/30 02:37:55;;;;;;;16.60;3.60;;;;;;;8.08;100.00;101943.53;5034494;28;20362;-75
2023/05/30 02:40:21;;;;;;;20.57;5.23;;;;;;;8.08;100.00;101943.53;5023331;28;20036;-75
2023/05/30 02:42:46;;;;;;;24.77;4.60;;;;;;;8.21;100.00;101960.28;5027950;28;20037;-76
2023/05/30 02:45:12;;;;;;;18.58;5.30;;;;;;;8.11;100.00;101946.81;5029384;28;20028;-75
2023/05/30 02:47:41;;;;;;;13.65;4.32;;;;;;;8.12;100.00;101945.00;5038498;28;20037;-75
2023/05/30 02:50:07;;;;;;;17.90;5.78;;;;;;;8.11;100.00;101956.63;5012868;28;20028;-75
2023/05/30 02:52:32;;;;;;;19.75;4.00;;;;;;;8.16;100.00;101962.44;5022169;28;20114;-75
2023/05/30 02:55:01;;;;;;;21.35;4.80;;;;;;;8.24;100.00;101954.69;5036629;28;20067;-75
2023/05/30 02:57:26;;;;;;;;;;;;;;;8.30;100.00;101948.91;5029679;28;20539;-75
2023/05/30 03:00:13;;;;;;;15.68;4.95;;;;;;;8.30;100.00;101943.59;5046127;28;19916;-76
2023/05/30 03:02:42;;;;;;;22.45;4.78;;;;;;;8.22;100.00;101951.34;5041745;28;20087;-75
2023/05/30 03:05:10;;;;;;;18.38;4.28;;;;;;;8.31;100.00;101960.41;5028858;28;20044;-75
2023/05/30 03:07:36;;;;;;;24.73;5.20;;;;;;;8.36;100.00;101953.78;5037959;28;20032;-75
2023/05/30 03:10:05;;;;;;;14.93;5.00;;;;;;;8.40;100.00;101954.41;5028813;28;20029;-75
2023/05/30 03:12:31;;;;;;;18.50;4.38;;;;;;;8.46;100.00;101961.94;5028794;28;20117;-75
2023/05/30 03:14:57;;;;;;;29.23;5.93;;;;;;;8.45;100.00;101942.47;5028267;28;20116;-76
2023/05/30 03:17:24;;;;;;;24.65;4.85;;;;;;;8.49;100.00;101956.34;5046526;28;20040;-76
2023/05/30 03:19:49;;;;;;;19.02;4.60;;;;;;;8.60;100.00;101960.84;5020557;28;20026;-76
2023/05/30 03:22:17;;;;;;;28.83;4.57;;;;;;;8.62;100.00;101954.44;5028033;28;20059;-75
2023/05/30 03:24:42;;;;;;;18.52;4.60;;;;;;;8.57;100.00;101940.66;5038107;28;20431;-76
2023/05/30 03:27:08;;;;;;;27.60;5.07;;;;;;;8.72;100.00;101941.25;5018803;28;20033;-75
2023/05/30 03:29:33;;;;;;;15.52;4.15;;;;;;;8.84;100.00;101945.59;5012331;28;20537;-76
2023/05/30 03:32:01;;;;;;;22.38;5.30;;;;;;;8.84;100.00;101931.44;5027851;28;20044;-75
2023/05/30 03:34:27;;;;;;;19.23;4.60;;;;;;;8.83;100.00;101927.94;5028090;28;20024;-75
2023/05/30 03:36:52;;;;;;;25.38;4.57;;;;;;;8.80;100.00;101928.19;5034401;28;20033;-76
2023/05/30 03:39:19;;;;;;;16.25;5.38;;;;;;;8.84;100.00;101934.94;5028375;28;20213;-75
2023/05/30 03:41:45;;;;;;;18.35;5.22;;;;;;;8.77;100.00;101931.06;5028481;28;20037;-75
2023/05/30 03:44:10;;;;;;;19.97;5.90;;;;;;;8.82;100.00;101946.69;5016458;28;20079;-76
2023/05/30 03:46:36;;;;;;;27.77;6.07;;;;;;;8.88;100.00;101947.06;5028239;28;20021;-76
2023/05/30 03:49:01;;;;;;;23.53;5.47;;;;;;;8.89;100.00;101947.91;5028160;28;20512;-76
2023/05/30 03:51:27;;;;;;;15.93;5.20;;;;;;;8.96;100.00;101945.59;5028499;28;20104;-75
2023/05/30 03:53:52;;;;;;;25.40;6.93;;;;;;;8.98;100.00;101938.34;5039652;28;20033;-75
2023/05/30 03:56:19;;;;;;;18.60;4.47;;;;;;;9.07;100.00;101948.25;5027974;28;20021;-75
2023/05/30 03:58:45;;;;;;;18.40;5.70;;;;;;;9.26;100.00;101947.59;5013688;28;20033;-76
2023/05/30 04:01:10;;;;;;;15.82;5.32;;;;;;;9.32;100.00;101932.94;5027846;28;20031;-75
2023/05/30 04:03:37;;;;;;;18.38;6.15;;;;;;;9.22;100.00;101930.16;5027594;28;20145;-76
2023/05/30 04:06:05;;;;;;;14.38;5.22;;;;;;;9.41;100.00;101942.84;5027526;28;20036;-75
2023/05/30 04:08:31;;;;;;;14.30;4.88;;;;;;;9.33;100.00;101916.81;5014691;28;20098;-75
2023/05/30 04:10:56;;;;;;;26.55;5.18;;;;;;;9.30;100.00;101919.75;5027757;28;20021;-75
2023/05/30 04:13:22;;;;;;;20.50;5.10;;;;;;;9.29;100.00;101916.25;5018206;28;20033;-75
2023/05/30 04:15:49;;;;;;;16.90;5.38;;;;;;;9.27;100.00;101907.53;5027624;28;20037;-76
2023/05/30 04:18:14;;;;;;;29.45;6.78;;;;;;;9.28;100.00;101914.53;5027923;28;20032;-76
2023/05/30 04:20:40;;;;;;;21.07;5.60;;;;;;;9.30;100.00;101917.91;5045673;28;20033;-75
2023/05/30 04:23:06;;;;;;;23.02;5.13;;;;;;;9.32;100.00;101923.13;5027574;28;20835;-76
2023/05/30 04:25:33;;;;;;;22.13;5.05;;;;;;;9.19;100.00;101909.09;5027866;28;20047;-76
2023/05/30 04:27:58;;;;;;;16.85;4.72;;;;;;;9.33;100.00;101938.13;5019247;28;20041;-75
2023/05/30 04:30:24;;;;;;;18.63;5.43;;;;;;;9.42;100.00;101947.22;5027926;28;20017;-76
2023/05/30 04:32:50;;;;;;;31.20;5.07;;;;;;;9.51;100.00;101946.47;5027557;28;20934;-75
2023/05/30 04:35:15;;;;;;;24.13;5.00;;;;;;;9.51;100.00;101946.47;5027585;28;20045;-75
2023/05/30 04:37:44;;;;;;;22.97;6.17;;;;;;;9.49;100.00;101938.56;5024090;28;20287;-76
2023/05/30 04:40:12;;;;;;;24.52;5.20;;;;;;;9.48;100.00;101930.69;5027966;28;20025;-76
2023/05/30 04:42:41;;;;;;;21.25;5.18;;;;;;;9.50;100.00;101929.63;5027362;28;20412;-75
2023/05/30 04:45:08;;;;;;;26.98;5.80;;;;;;;9.62;100.00;101962.41;5027411;28;20024;-76
2023/05/30 04:47:34;;;;;;;21.25;5.32;;;;;;;9.70;100.00;101956.44;5024401;28;20065;-76
2023/05/30 04:50:01;;;;;;;20.52;6.53;;;;;;;9.78;100.00;101945.13;5026271;28;20430;-75
2023/05/30 04:52:27;;;;;;;23.42;5.38;;;;;;;9.91;100.00;101938.66;5027332;28;20032;-76
2023/05/30 04:54:53;;;;;;;19.92;5.53;;;;;;;9.97;100.00;101941.75;5027308;28;20079;-76
2023/05/30 04:57:19;;;;;;;22.77;5.15;;;;;;;9.96;100.00;101930.25;5027484;28;20450;-76
2023/05/30 04:59:45;;;;;;;27.88;6.88;;;;;;;10.12;100.00;101941.31;5027122;28;20029;-76
2023/05/30 05:02:12;;;;;;;26.20;7.18;;;;;;;10.03;100.00;101920.75;5032761;28;20033;-76
2023/05/30 05:04:37;;;;;;;24.55;5.75;;;;;;;10.11;100.00;101907.63;5027290;28;20028;-76
2023/05/30 05:07:03;;;;;;;17.40;5.13;;;;;;;10.13;100.00;101913.66;5045065;28;20044;-76
2023/05/30 05:09:28;;;;;;;21.67;4.75;;;;;;;10.24;100.00;101933.25;5049258;28;20029;-76
2023/05/30 05:11:54;;;;;;;21.20;7.37;;;;;;;10.18;100.00;101920.41;5042202;28;20052;-76
2023/05/30 05:14:19;;;;;;;19.92;4.72;;;;;;;10.21;100.00;101928.16;5030037;28;20021;-75
2023/05/30 05:16:45;;;;;;;28.27;6.27;;;;;;;10.18;100.00;101912.41;5048876;28;20060;-76
2023/05/30 05:19:10;;;;;;;20.80;6.30;;;;;;;10.35;100.00;101909.19;5031033;28;20032;-76
2023/05/30 05:21:36;;;;;;;17.50;6.23;;;;;;;10.36;100.00;101892.19;5021686;28;20140;-76
2023/05/30 05:24:02;;;;;;;19.45;4.28;;;;;;;10.40;100.00;101903.44;5030273;28;20033;-76
2023/05/30 05:26:28;;;;;;;20.00;5.40;;;;;;;10.53;100.00;101918.25;5030991;28;20036;-76
2023/05/30 05:28:53;;;;;;;19.47;4.83;;;;;;;10.66;100.00;101915.38;5038980;28;20033;-76
2023/05/30 05:31:18;;;;;;;21.90;6.33;;;;;;;10.70;100.00;101910.59;5030960;28;20024;-77
2023/05/30 05:33:44;;;;;;;21.63;6.13;;;;;;;10.78;100.00;101903.59;5029596;28;20506;-76
2023/05/30 05:36:10;;;;;;;24.27;6.47;;;;;;;10.67;100.00;101897.50;5027611;28;20025;-75
2023/05/30 05:38:36;;;;;;;18.73;5.32;;;;;;;10.70;100.00;101907.91;5030680;28;20088;-75
2023/05/30 05:41:01;;;;;;;21.50;6.47;;;;;;;10.70;100.00;101890.09;5029353;28;20679;-76
2023/05/30 05:43:26;;;;;;;22.33;4.87;;;;;;;10.73;100.00;101886.28;5051624;22;20570;-76
2023/05/30 05:45:52;;;;;;;20.67;5.13;;;;;;;10.67;100.00;101897.50;5047858;28;20076;-77
2023/05/30 05:48:17;;;;;;;18.07;5.87;;;;;;;10.83;100.00;101940.59;5042530;28;20057;-76
2023/05/30 05:50:43;;;;;;;18.53;5.23;;;;;;;10.98;100.00;101944.59;5065353;28;20032;-77
2023/05/30 05:53:08;;;;;;;30.23;6.43;;;;;;;10.92;100.00;101902.38;5077317;28;20027;-77
2023/05/30 05:55:34;;;;;;;13.02;4.80;;;;;;;10.99;100.00;101878.63;5060111;28;20043;-76
2023/05/30 05:57:59;;;;;;;17.00;5.33;;;;;;;11.01;100.00;101863.31;5048678;28;20232;-76
2023/05/30 06:00:25;;;;;;;15.25;4.32;;;;;;;10.97;100.00;101853.88;5084321;28;20521;-76
2023/05/30 06:02:50;;;;;;;16.47;6.30;;;;;;;10.93;100.00;101855.97;5064487;28;20516;-77
2023/05/30 06:05:16;;;;;;;11.33;4.13;;;;;;;10.88;100.00;101866.22;5075744;28;20036;-77
2023/05/30 06:07:41;;;;;;;17.13;5.40;;;;;;;10.97;100.00;101870.72;5065954;28;20024;-76
2023/05/30 06:10:07;;;;;;;22.03;3.93;;;;;;;11.12;100.00;101902.41;5048638;28;20028;-76
2023/05/30 06:12:33;;;;;;;15.63;4.78;;;;;;;11.31;100.00;101891.75;5062699;28;20532;-76
2023/05/30 06:14:58;;;;;;;21.53;4.27;;;;;;;11.57;100.00;101885.84;5040752;28;20048;-76
2023/05/30 06:17:23;;;;;;;18.10;4.50;;;;;;;11.55;100.00;101829.00;5059854;28;20021;-76
2023/05/30 06:19:50;;;;;;;14.43;4.60;;;;;;;11.59;100.00;101825.06;5062801;28;20069;-77
2023/05/30 06:22:16;;;;;;;15.90;5.35;;;;;;;11.52;100.00;101813.22;5065387;28;20027;-77
2023/05/30 06:24:42;;;;;;;15.02;4.88;;;;;;;11.54;100.00;101800.53;5080863;28;20035;-76
2023/05/30 06:27:07;;;;;;;12.07;4.43;;;;;;;11.50;100.00;101770.59;5059835;28;20024;-77
2023/05/30 06:29:35;;;;;;;15.67;4.13;;;;;;;11.51;100.00;101771.41;5058577;28;20475;-77
2023/05/30 06:32:00;;;;;;;15.52;5.22;;;;;;;11.80;100.00;101822.19;5055818;28;20881;-77
2023/05/30 06:34:26;;;;;;;16.60;4.80;;;;;;;11.90;100.00;101798.13;5057263;28;20042;-75
2023/05/30 06:36:52;;;;;;;12.17;4.40;;;;;;;11.85;100.00;101769.09;5057036;28;20395;-76
2023/05/30 06:39:17;;;;;;;20.30;4.38;;;;;;;11.93;100.00;101784.44;5065299;28;20040;-76
2023/05/30 06:41:45;;;;;;;21.60;6.07;;;;;;;12.03;100.00;101807.50;5083118;28;20023;-76
2023/05/30 06:44:11;;;;;;;16.52;4.95;;;;;;;11.80;100.00;101784.75;5070183;28;20077;-77
2023/05/30 06:46:37;;;;;;;13.73;3.40;;;;;;;11.90;100.00;101757.97;5057798;28;20311;-77
2023/05/30 06:49:03;;;;;;;17.75;4.30;;;;;;;11.93;100.00;101757.69;5082554;28;20036;-76
2023/05/30 06:51:28;;;;;;;16.63;4.22;;;;;;;11.98;100.00;101734.00;5065351;28;20093;-76
2023/05/30 06:53:54;;;;;;;14.85;4.28;;;;;;;12.17;100.00;101749.94;5046158;28;20085;-76
2023/05/30 06:56:20;;;;;;;13.18;4.22;;;;;;;12.01;100.00;101683.69;5060210;28;20437;-77
2023/05/30 06:58:45;;;;;;;17.13;4.83;;;;;;;12.00;100.00;101758.78;5061800;28;20047;-77
2023/05/30 07:01:11;;;;;;;24.30;5.90;;;;;;;11.98;100.00;101750.03;5059162;28;20016;-76
2023/05/30 07:03:36;;;;;;;12.65;4.45;;;;;;;11.95;100.00;101772.59;5047589;28;20502;-77
2023/05/30 07:06:02;;;;;;;23.10;5.70;;;;;;;12.16;100.00;101812.53;5040966;28;20024;-76
2023/05/30 07:08:27;;;;;;;12.75;4.30;;;;;;;12.23;100.00;101765.44;5075102;28;20166;-76
2023/05/30 07:10:53;;;;;;;18.37;4.43;;;;;;;12.40;100.00;101741.53;5045473;28;20107;-76
2023/05/30 07:13:18;;;;;;;14.27;3.90;;;;;;;12.41;100.00;101729.84;5059395;28;20038;-76
2023/05/30 07:15:44;;;;;;;13.40;3.73;;;;;;;12.44;100.00;101757.16;5039572;28;20363;-76
2023/05/30 07:18:09;;;;;;;16.15;4.43;;;;;;;12.33;100.00;101706.47;5069453;28;20508;-77
2023/05/30 07:20:35;;;;;;;21.47;4.77;;;;;;;12.17;100.00;101722.34;5075514;28;20024;-76
2023/05/30 07:23:00;;;;;;;14.13;4.77;;;;;;;12.33;100.00;101796.66;5053924;28;20200;-75
2023/05/30 07:25:25;;;;;;;18.30;3.87;;;;;;;12.60;100.00;101826.13;5054191;28;20025;-77
2023/05/30 07:27:51;;;;;;;14.47;3.83;;;;;;;12.79;100.00;101760.03;5045187;28;20039;-76
2023/05/30 07:30:16;;;;;;;11.80;3.57;;;;;;;12.90;100.00;101730.31;5075439;28;20032;-76
2023/05/30 07:32:42;;;;;;;14.13;4.40;;;;;;;12.93;100.00;101692.50;5081523;28;20118;-77
2023/05/30 07:35:07;;;;;;;20.53;4.53;;;;;;;13.07;100.00;101693.78;5037210;28;20073;-76
2023/05/30 07:37:36;;;;;;;14.32;4.63;;;;;;;13.04;100.00;101633.28;5060537;28;20123;-76
2023/05/30 07:40:07;;;;;;;19.63;4.20;;;;;;;12.91;100.00;101626.63;5065495;28;20039;-77
2023/05/30 07:42:36;;;;;;;9.50;3.55;;;;;;;12.92;100.00;101674.69;5066353;28;20040;-77
2023/05/30 07:45:02;;;;;;;12.95;4.22;;;;;;;12.80;100.00;101619.69;5067300;28;20028;-77
2023/05/30 07:47:28;;;;;;;16.88;3.90;;;;;;;12.56;100.00;101680.09;5065420;28;20078;-77
2023/05/30 07:49:53;;;;;;;15.25;4.25;;;;;;;12.92;100.00;101781.06;5055691;28;20096;-76
2023/05/30 07:52:19;;;;;;;13.40;3.57;;;;;;;13.18;100.00;101755.19;5035930;28;20454;-75
2023/05/30 07:54:44;;;;;;;11.37;3.70;;;;;;;13.07;100.00;101705.34;5070932;28;20463;-74
2023/05/30 07:57:12;;;;;;;10.33;3.63;;;;;;;13.15;100.00;101704.53;5051020;28;20032;-76
2023/05/30 07:59:40;;;;;;;9.18;3.33;;;;;;;13.32;100.00;101693.97;5032548;28;20034;-76
2023/05/30 08:02:06;;;;;;;12.85;3.45;;;;;;;13.39;100.00;101677.09;5047323;28;20033;-74
2023/05/30 08:04:31;;;;;;;14.97;3.50;;;;;;;13.39;100.00;101650.28;5065281;28;20115;-77
2023/05/30 08:06:56;;;;;;;12.27;3.70;;;;;;;13.63;100.00;101652.25;5047509;28;20031;-75
2023/05/30 08:09:22;;;;;;;11.30;3.27;;;;;;;13.77;100.00;101669.59;5047353;28;20032;-76
2023/05/30 08:11:47;;;;;;;12.23;4.38;;;;;;;13.75;100.00;101520.47;5030661;28;20031;-76
2023/05/30 08:14:13;;;;;;;7.63;3.63;;;;;;;13.76;100.00;101463.94;5047246;28;20039;-76
2023/05/30 08:16:39;;;;;;;10.35;3.50;;;;;;;13.83;100.00;101496.31;5058075;28;20099;-76
2023/05/30 08:19:04;;;;;;;10.65;3.80;;;;;;;13.63;100.00;101468.97;5044936;28;20094;-76
2023/05/30 08:21:31;;;;;;;12.70;3.47;;;;;;;13.45;100.00;101413.59;5054072;28;20952;-76
2023/05/30 08:23:57;;;;;;;13.40;4.40;;;;;;;13.54;100.00;101518.22;5061307;28;20286;-75
2023/05/30 08:26:25;;;;;;;15.48;3.88;;;;;;;13.56;100.00;101561.84;5079211;28;20016;-76
2023/05/30 08:28:51;;;;;;;13.50;4.15;;;;;;;13.08;100.00;101567.59;5057608;28;20094;-75
2023/05/30 08:31:19;;;;;;;10.77;3.72;;;;;;;13.41;100.00;101624.13;5058559;28;20052;-75
2023/05/30 08:33:45;;;;;;;12.98;3.90;;;;;;;13.65;100.00;101607.31;5067498;28;20060;-76
2023/05/30 08:36:10;;;;;;;10.85;4.53;;;;;;;13.54;100.00;101674.66;5052496;28;20571;-76
2023/05/30 08:38:36;;;;;;;15.60;3.88;;;;;;;13.62;100.00;101593.38;5065194;28;20044;-75
2023/05/30 08:41:01;;;;;;;14.57;3.67;;;;;;;13.74;100.00;101616.22;5069852;28;20028;-76
2023/05/30 08:43:27;;;;;;;7.17;3.10;;;;;;;13.90;100.00;101643.13;5066988;28;20071;-75
2023/05/30 08:45:55;;;;;;;9.77;3.20;;;;;;;13.90;100.00;101561.75;5084939;28;20228;-75
2023/05/30 08:48:23;;;;;;;12.52;3.53;;;;;;;13.90;100.00;101594.78;5067584;28;20035;-75
2023/05/30 08:50:49;;;;;;;11.10;3.20;;;;;;;14.04;100.00;101622.03;5052542;28;20060;-76
2023/05/30 08:53:24;;;;;;;9.60;3.25;;;;;;;13.87;100.00;101584.41;5060810;28;20078;-75
2023/05/30 08:56:10;;;;;;;12.63;3.95;;;;;;;13.92;100.00;101592.78;5057574;28;20406;-75
2023/05/30 08:58:47;;;;;;;14.45;3.88;;;;;;;13.99;100.00;101584.09;5060853;28;20066;-75
2023/05/30 09:01:14;;;;;;;9.25;2.60;;;;;;;14.24;100.00;101575.06;5062450;28;20024;-76
2023/05/30 09:03:44;;;;;;;13.80;4.53;;;;;;;14.03;100.00;101461.94;5070407;28;20556;-75
2023/05/30 09:06:11;;;;;;;15.55;3.97;;;;;;;14.11;100.00;101440.44;5054998;28;20040;-75
2023/05/30 09:08:38;;;;;;;11.38;3.90;;;;;;;14.18;100.00;101554.25;5070066;28;20060;-76
2023/05/30 09:11:04;;;;;;;14.15;3.25;;;;;;;13.99;100.00;101519.66;5050477;28;20067;-75
2023/05/30 09:13:29;;;;;;;8.32;3.42;;;;;;;14.07;100.00;101584.97;5039727;28;20085;-75
2023/05/30 09:15:55;;;;;;;9.43;3.73;;;;;;;14.17;100.00;101611.66;5058740;28;20578;-75
2023/05/30 09:18:20;;;;;;;12.53;3.60;;;;;;;13.91;100.00;101617.97;5039030;28;20536;-75
2023/05/30 09:20:46;;;;;;;12.32;4.07;;;;;;;13.61;100.00;101624.72;5065173;28;20034;-75
2023/05/30 09:23:12;;;;;;;9.83;3.87;;;;;;;13.62;100.00;101698.84;5060305;28;20051;-75
2023/05/30 09:25:45;;;;;;;10.50;3.67;;;;;;;13.75;100.00;101668.91;5073693;28;20039;-74
2023/05/30 09:28:12;;;;;;;12.48;4.18;;;;;;;13.76;100.00;101681.31;5071029;28;20117;-75
2023/05/30 09:30:57;;;;;;;10.02;3.85;;;;;;;13.91;100.00;101700.34;5084234;28;20027;-76
2023/05/30 09:33:23;;;;;;;13.25;3.80;;;;;;;14.01;100.00;101725.22;5074873;28;20028;-76
2023/05/30 09:35:56;;;;;;;11.45;3.63;;;;;;;14.06;100.00;101647.69;5057972;28;20027;-76
2023/05/30 09:38:24;;;;;;;11.88;3.92;;;;;;;13.89;100.00;101600.34;5084908;28;20039;-75
2023/05/30 09:40:55;;;;;;;12.10;3.50;;;;;;;14.10;100.00;101697.41;5066241;28;20016;-76
2023/05/30 09:43:34;;;;;;;10.00;3.97;;;;;;;14.56;100.00;101703.28;5078000;28;20039;-75
2023/05/30 09:46:05;;;;;;;10.43;3.75;;;;;;;14.79;100.00;101651.53;5066215;28;20044;-75
2023/05/30 09:48:31;;;;;;;10.93;3.25;;;;;;;14.85;100.00;101512.94;5066685;28;20516;-75
2023/05/30 09:50:58;;;;;;;;;;;;;;;15.15;100.00;101551.66;5068007;28;20020;-76
2023/05/30 09:53:27;;;;;;;11.30;3.28;;;;;;;15.14;100.00;101421.72;5076687;28;19919;-75
2023/05/30 09:55:52;;;;;;;8.77;3.40;;;;;;;15.19;100.00;101379.00;5080031;28;20483;-75
2023/05/30 09:58:19;;;;;;;8.83;3.50;;;;;;;14.90;100.00;101430.75;5058864;28;20070;-75
2023/05/30 10:00:51;;;;;;;;;;;;;;;14.83;100.00;101488.91;5075850;28;20524;-75
2023/05/30 10:03:17;;;;;;;9.73;3.40;;;;;;;14.60;100.00;101510.28;5061076;28;19927;-75
2023/05/30 10:05:43;;;;;;;9.60;3.35;;;;;;;14.41;100.00;101503.38;5055477;28;20024;-75
2023/05/30 10:08:10;;;;;;;9.87;3.33;;;;;;;14.41;100.00;101592.03;5078031;28;20039;-74
2023/05/30 10:10:37;;;;;;;8.57;3.58;;;;;;;14.62;100.00;101648.00;5047918;28;20571;-75
2023/05/30 10:13:03;;;;;;;9.00;3.55;;;;;;;14.70;100.00;101596.97;5069107;28;20544;-75
2023/05/30 10:15:28;;;;;;;10.60;3.17;;;;;;;14.71;100.00;101679.25;5083500;28;20016;-75
2023/05/30 10:18:11;;;;;;;10.07;3.42;;;;;;;14.64;100.00;101624.50;5050710;28;20312;-75
2023/05/30 10:20:47;;;;;;;8.90;2.90;;;;;;;14.73;100.00;101575.09;5048698;28;20040;-75
2023/05/30 10:23:13;;;;;;;10.35;3.10;;;;;;;15.01;100.00;101565.81;5052582;28;20040;-75
2023/05/30 10:25:44;;;;;;;13.77;3.22;;;;;;;15.03;100.00;101532.38;5047962;28;20099;-75
2023/05/30 10:28:18;;;;;;;6.13;3.03;;;;;;;15.08;100.00;101556.06;5068883;28;20032;-75
2023/05/30 10:30:44;;;;;;;9.23;3.88;;;;;;;14.97;100.00;101527.69;5065301;28;20119;-75
2023/05/30 10:33:11;;;;;;;6.63;3.13;;;;;;;15.12;100.00;101598.53;5048159;28;20020;-75
2023/05/30 10:35:37;;;;;;;15.25;3.45;;;;;;;15.25;100.00;101519.19;5071544;28;20035;-75
2023/05/30 10:38:05;;;;;;;10.07;3.45;;;;;;;15.19;100.00;101508.13;5041203;28;20033;-76
2023/05/30 10:40:49;;;;;;;8.90;3.72;;;;;;;15.44;100.00;101491.84;5058636;28;20047;-76
2023/05/30 10:43:14;;;;;;;11.35;3.28;;;;;;;15.51;100.00;101481.22;5048889;28;20051;-76
2023/05/30 10:46:01;;;;;;;10.27;4.20;;;;;;;15.38;100.00;101395.69;5079849;28;20032;-74
2023/05/30 10:48:46;;;;;;;12.70;3.35;;;;;;;15.36;100.00;101438.94;5049876;28;20128;-75
2023/05/30 10:51:13;;;;;;;;;;;;;;;15.55;100.00;101504.06;5079581;28;20461;-75
2023/05/30 10:53:41;;;;;;;11.43;3.17;;;;;;;15.63;100.00;101469.03;5061345;28;19961;-75
2023/05/30 10:56:26;;;;;;;9.63;3.35;;;;;;;15.65;100.00;101444.63;5079442;28;20071;-76
2023/05/30 10:58:53;;;;;;;8.32;3.45;;;;;;;16.01;100.00;101453.81;5079517;28;20452;-75
2023/05/30 11:01:26;;;;;;;12.02;3.40;;;;;;;16.17;100.00;101390.84;5077364;28;20348;-75
2023/05/30 11:04:28;;;;;;;10.85;3.10;;;;;;;16.38;100.00;101279.66;5048299;28;20040;-75
2023/05/30 11:06:55;;;;;;;8.30;3.08;;;;;;;16.48;99.46;101262.34;4956439;28;20055;-75
2023/05/30 11:09:20;;;;;;;9.18;3.10;;;;;;;16.28;99.07;101192.06;4974572;28;20044;-74
2023/05/30 11:11:56;;;;;;;12.87;4.30;;;;;;;16.27;98.79;101201.16;4962587;28;20046;-74
2023/05/30 11:14:30;;;;;;;9.63;3.58;;;;;;;16.22;99.24;101282.53;4969369;28;20046;-75
2023/05/30 11:17:08;;;;;;;8.25;3.10;;;;;;;16.30;95.02;101042.69;4979471;28;20781;-74